Time,TemperatureF,DewpointF,PressureIn,WindDirection,WindDirectionDegrees,WindSpeedMPH,WindSpeedGustMPH,Humidity,HourlyPrecipIn,Conditions,Clouds,dailyrainin,SoftwareType,DateUTC
2013-04-07 00:03:00,25.0,11.0,-100.00,West,270,0.0,1.0,54,0.00,,,-99.99,,2013-04-07 04:03:00,
2013-04-07 00:14:00,25.0,11.0,-100.00,North,10,1.0,1.0,55,0.00,,,-99.99,,2013-04-07 04:14:00,
2013-04-07 00:23:00,25.0,10.0,-100.00,North,355,0.0,1.0,53,0.00,,,-99.99,,2013-04-07 04:23:00,
2013-04-07 00:32:00,25.0,11.0,-100.00,SW,220,0.0,1.0,53,0.00,,,-99.99,,2013-04-07 04:32:00,
2013-04-07 00:43:00,25.0,12.0,-100.00,West,260,1.0,1.0,56,0.00,,,-99.99,,2013-04-07 04:43:00,
2013-04-07 00:52:00,25.0,12.0,-100.00,West,270,1.0,1.0,56,0.00,,,-99.99,,2013-04-07 04:52:00,
2013-04-07 01:02:00,25.0,12.0,-100.00,West,270,0.0,1.0,56,0.00,,,-99.99,,2013-04-07 05:02:00,
2013-04-07 01:12:00,25.0,11.0,-100.00,SSW,210,0.0,1.0,54,0.00,,,-99.99,,2013-04-07 05:12:00,
2013-04-07 01:23:00,26.0,11.0,-100.00,South,175,0.0,1.0,54,0.00,,,-99.99,,2013-04-07 05:23:00,
2013-04-07 01:33:00,26.0,11.0,-100.00,NNW,330,0.0,0.0,53,0.00,,,-99.99,,2013-04-07 05:33:00,
2013-04-07 01:43:00,26.0,12.0,-100.00,North,10,1.0,2.0,56,0.00,,,-99.99,,2013-04-07 05:43:00,
2013-04-07 01:52:00,26.0,13.0,-100.00,SW,225,0.0,1.0,58,0.00,,,-99.99,,2013-04-07 05:52:00,
2013-04-07 02:02:00,26.0,14.0,-100.00,West,265,0.0,1.0,58,0.00,,,-99.99,,2013-04-07 06:02:00,
2013-04-07 02:12:00,26.0,11.0,-100.00,North,355,0.0,1.0,52,0.00,,,-99.99,,2013-04-07 06:12:00,
2013-04-07 02:22:00,26.0,11.0,-100.00,SE,145,0.0,2.0,51,0.00,,,-99.99,,2013-04-07 06:22:00,
2013-04-07 02:42:00,26.0,11.0,-100.00,West,260,1.0,1.0,52,0.00,,,-99.99,,2013-04-07 06:42:00,
2013-04-07 02:52:00,26.0,11.0,-100.00,ESE,115,1.0,1.0,51,0.00,,,-99.99,,2013-04-07 06:52:00,
2013-04-07 03:02:00,26.0,11.0,-100.00,ENE,65,0.0,1.0,50,0.00,,,-99.99,,2013-04-07 07:02:00,
2013-04-07 03:12:00,26.0,11.0,-100.00,WSW,255,0.0,1.0,51,0.00,,,-99.99,,2013-04-07 07:12:00,
2013-04-07 03:22:00,26.0,11.0,-100.00,WNW,285,0.0,1.0,53,0.00,,,-99.99,,2013-04-07 07:22:00,
2013-04-07 03:32:00,25.0,11.0,-100.00,SW,225,1.0,2.0,55,0.00,,,-99.99,,2013-04-07 07:32:00,
2013-04-07 03:42:00,25.0,11.0,-100.00,WSW,240,0.0,2.0,55,0.00,,,-99.99,,2013-04-07 07:42:00,
2013-04-07 03:52:00,25.0,12.0,-100.00,SW,235,0.0,1.0,58,0.00,,,-99.99,,2013-04-07 07:52:00,
2013-04-07 04:02:00,25.0,11.0,-100.00,South,180,0.0,1.0,56,0.00,,,-99.99,,2013-04-07 08:02:00,
2013-04-07 04:12:00,25.0,11.0,-100.00,SW,235,1.0,1.0,56,0.00,,,-99.99,,2013-04-07 08:12:00,
2013-04-07 04:22:00,25.0,11.0,-100.00,South,180,1.0,1.0,55,0.00,,,-99.99,,2013-04-07 08:22:00,
2013-04-07 04:33:00,24.0,10.0,-100.00,WSW,240,1.0,1.0,55,0.00,,,-99.99,,2013-04-07 08:33:00,
2013-04-07 04:42:00,24.0,11.0,-100.00,SSW,200,0.0,1.0,56,0.00,,,-99.99,,2013-04-07 08:42:00,
2013-04-07 04:52:00,24.0,12.0,-100.00,West,260,0.0,1.0,60,0.00,,,-99.99,,2013-04-07 08:52:00,
2013-04-07 05:02:00,24.0,13.0,-100.00,ENE,70,0.0,1.0,61,0.00,,,-99.99,,2013-04-07 09:02:00,
2013-04-07 05:12:00,24.0,12.0,-100.00,West,260,1.0,1.0,59,0.00,,,-99.99,,2013-04-07 09:12:00,
2013-04-07 05:22:00,24.0,11.0,-100.00,SW,215,1.0,2.0,58,0.00,,,-99.99,,2013-04-07 09:22:00,
2013-04-07 05:33:00,24.0,11.0,-100.00,SSW,210,0.0,1.0,56,0.00,,,-99.99,,2013-04-07 09:33:00,
2013-04-07 05:43:00,24.0,13.0,-100.00,NW,325,1.0,2.0,61,0.00,,,-99.99,,2013-04-07 09:43:00,
2013-04-07 05:53:00,24.0,12.0,-100.00,West,260,0.0,1.0,59,0.00,,,-99.99,,2013-04-07 09:53:00,
2013-04-07 06:04:00,25.0,13.0,-100.00,East,95,1.0,1.0,59,0.00,,,-99.99,,2013-04-07 10:04:00,
2013-04-07 06:13:00,25.0,13.0,-100.00,South,190,0.0,2.0,59,0.00,,,-99.99,,2013-04-07 10:13:00,
2013-04-07 06:23:00,25.0,13.0,-100.00,South,185,0.0,1.0,60,0.00,,,-99.99,,2013-04-07 10:23:00,
2013-04-07 06:33:00,26.0,13.0,-100.00,NW,320,1.0,2.0,59,0.00,,,-99.99,,2013-04-07 10:33:00,
2013-04-07 06:43:00,26.0,13.0,-100.00,SSW,200,1.0,1.0,57,0.00,,,-99.99,,2013-04-07 10:43:00,
2013-04-07 06:53:00,26.0,13.0,-100.00,South,180,1.0,2.0,57,0.00,,,-99.99,,2013-04-07 10:53:00,
2013-04-07 07:03:00,26.0,12.0,-100.00,SSE,160,1.0,3.0,54,0.00,,,-99.99,,2013-04-07 11:03:00,
2013-04-07 07:12:00,26.0,14.0,-100.00,SE,135,1.0,2.0,58,0.00,,,-99.99,,2013-04-07 11:12:00,
2013-04-07 07:22:00,26.0,14.0,-100.00,SSE,155,1.0,3.0,59,0.00,,,-99.99,,2013-04-07 11:22:00,
2013-04-07 07:33:00,26.0,14.0,-100.00,SE,145,3.0,4.0,59,0.00,,,-99.99,,2013-04-07 11:33:00,
2013-04-07 07:42:00,27.0,13.0,-100.00,East,80,1.0,2.0,55,0.00,,,-99.99,,2013-04-07 11:42:00,
2013-04-07 07:52:00,28.0,14.0,-100.00,North,350,1.0,2.0,55,0.00,,,-99.99,,2013-04-07 11:52:00,
2013-04-07 08:02:00,29.0,10.0,-100.00,WSW,250,1.0,4.0,43,0.00,,,-99.99,,2013-04-07 12:02:00,
2013-04-07 08:12:00,31.0,6.0,-100.00,SW,225,2.0,4.0,35,0.00,,,-99.99,,2013-04-07 12:12:00,
2013-04-07 08:23:00,32.0,6.0,-100.00,ESE,115,1.0,6.0,32,0.00,,,-99.99,,2013-04-07 12:23:00,
2013-04-07 08:34:00,30.0,17.0,-100.00,South,180,2.0,4.0,59,0.00,,,-99.99,,2013-04-07 12:34:00,
2013-04-07 08:43:00,29.0,16.0,-100.00,NE,35,2.0,3.0,55,0.00,,,-99.99,,2013-04-07 12:43:00,
2013-04-07 08:53:00,30.0,14.0,-100.00,West,260,0.0,1.0,49,0.00,,,-99.99,,2013-04-07 12:53:00,
2013-04-07 09:04:00,31.0,14.0,-100.00,East,90,1.0,2.0,48,0.00,,,-99.99,,2013-04-07 13:04:00,
2013-04-07 09:13:00,32.0,11.0,-100.00,ESE,115,1.0,2.0,42,0.00,,,-99.99,,2013-04-07 13:13:00,
2013-04-07 09:22:00,32.0,12.0,-100.00,ESE,120,0.0,3.0,41,0.00,,,-99.99,,2013-04-07 13:22:00,
2013-04-07 09:32:00,32.0,15.0,-100.00,ENE,60,1.0,4.0,48,0.00,,,-99.99,,2013-04-07 13:32:00,
2013-04-07 09:42:00,33.0,13.0,-100.00,East,90,3.0,6.0,42,0.00,,,-99.99,,2013-04-07 13:42:00,
2013-04-07 09:52:00,35.0,11.0,-100.00,SSE,155,2.0,7.0,36,0.00,,,-99.99,,2013-04-07 13:52:00,
2013-04-07 10:02:00,38.0,14.0,-100.00,East,85,1.0,6.0,37,0.00,,,-99.99,,2013-04-07 14:02:00,
2013-04-07 10:12:00,39.0,10.0,-100.00,SE,140,3.0,9.0,29,0.00,,,-99.99,,2013-04-07 14:12:00,
2013-04-07 10:23:00,41.0,11.0,-100.00,SE,145,4.0,13.0,29,0.00,,,-99.99,,2013-04-07 14:23:00,
2013-04-07 10:33:00,42.0,11.0,-100.00,SSW,200,6.0,16.0,27,0.00,,,-99.99,,2013-04-07 14:33:00,
2013-04-07 10:43:00,42.0,11.0,-100.00,SSE,155,4.0,17.0,27,0.00,,,-99.99,,2013-04-07 14:43:00,
2013-04-07 10:53:00,42.0,12.0,-100.00,SSE,165,3.0,13.0,28,0.00,,,-99.99,,2013-04-07 14:53:00,
2013-04-07 11:03:00,43.0,14.0,-100.00,SW,220,7.0,15.0,29,0.00,,,-99.99,,2013-04-07 15:03:00,
2013-04-07 11:13:00,44.0,13.0,-100.00,WSW,245,7.0,17.0,28,0.00,,,-99.99,,2013-04-07 15:13:00,
2013-04-07 11:22:00,44.0,13.0,-100.00,SW,225,7.0,16.0,28,0.00,,,-99.99,,2013-04-07 15:22:00,
2013-04-07 11:34:00,43.0,13.0,-100.00,SW,225,2.0,13.0,29,0.00,,,-99.99,,2013-04-07 15:34:00,
2013-04-07 11:44:00,42.0,13.0,-100.00,SW,215,4.0,20.0,29,0.00,,,-99.99,,2013-04-07 15:44:00,
2013-04-07 11:53:00,42.0,13.0,-100.00,SW,230,7.0,17.0,30,0.00,,,-99.99,,2013-04-07 15:53:00,
2013-04-07 12:04:00,42.0,15.0,-100.00,SSW,200,7.0,16.0,31,0.00,,,-99.99,,2013-04-07 16:04:00,
2013-04-07 12:13:00,42.0,14.0,-100.00,SSW,210,4.0,12.0,31,0.00,,,-99.99,,2013-04-07 16:13:00,
2013-04-07 12:24:00,42.0,15.0,-100.00,SSW,205,5.0,16.0,32,0.00,,,-99.99,,2013-04-07 16:24:00,
2013-04-07 12:33:00,42.0,15.0,-100.00,WSW,255,4.0,19.0,32,0.00,,,-99.99,,2013-04-07 16:33:00,
2013-04-07 12:43:00,43.0,15.0,-100.00,South,180,7.0,17.0,32,0.00,,,-99.99,,2013-04-07 16:43:00,
2013-04-07 12:53:00,43.0,16.0,-100.00,SSW,200,6.0,12.0,32,0.00,,,-99.99,,2013-04-07 16:53:00,
2013-04-07 13:05:00,43.0,15.0,-100.00,South,185,4.0,9.0,32,0.00,,,-99.99,,2013-04-07 17:05:00,
2013-04-07 13:13:00,44.0,16.0,-100.00,WSW,245,4.0,11.0,32,0.00,,,-99.99,,2013-04-07 17:13:00,
2013-04-07 13:23:00,44.0,16.0,-100.00,SW,225,6.0,14.0,32,0.00,,,-99.99,,2013-04-07 17:23:00,
2013-04-07 13:33:00,45.0,16.0,-100.00,East,95,2.0,11.0,30,0.00,,,-99.99,,2013-04-07 17:33:00,
2013-04-07 13:43:00,47.0,16.0,-100.00,SW,225,6.0,16.0,28,0.00,,,-99.99,,2013-04-07 17:43:00,
2013-04-07 13:52:00,48.0,15.0,-100.00,SW,220,5.0,16.0,26,0.00,,,-99.99,,2013-04-07 17:52:00,
2013-04-07 14:02:00,48.0,15.0,-100.00,SW,235,7.0,21.0,26,0.00,,,-99.99,,2013-04-07 18:02:00,
2013-04-07 14:13:00,48.0,15.0,-100.00,SSW,210,9.0,19.0,26,0.00,,,-99.99,,2013-04-07 18:13:00,
2013-04-07 14:23:00,49.0,15.0,-100.00,SW,220,6.0,19.0,25,0.00,,,-99.99,,2013-04-07 18:23:00,
2013-04-07 14:33:00,49.0,15.0,-100.00,SSW,200,8.0,21.0,25,0.00,,,-99.99,,2013-04-07 18:33:00,
2013-04-07 14:43:00,49.0,15.0,-100.00,SSW,205,9.0,20.0,25,0.00,,,-99.99,,2013-04-07 18:43:00,
2013-04-07 14:52:00,50.0,15.0,-100.00,SSW,195,6.0,24.0,24,0.00,,,-99.99,,2013-04-07 18:52:00,
2013-04-07 15:03:00,51.0,15.0,-100.00,South,180,6.0,20.0,24,0.00,,,-99.99,,2013-04-07 19:03:00,
2013-04-07 15:12:00,51.0,15.0,-100.00,South,185,5.0,14.0,23,0.00,,,-99.99,,2013-04-07 19:12:00,
2013-04-07 15:22:00,51.0,15.0,-100.00,South,170,6.0,19.0,23,0.00,,,-99.99,,2013-04-07 19:22:00,
2013-04-07 15:33:00,51.0,16.0,-100.00,SW,225,7.0,17.0,24,0.00,,,-99.99,,2013-04-07 19:33:00,
2013-04-07 15:42:00,51.0,16.0,-100.00,SSW,210,9.0,22.0,24,0.00,,,-99.99,,2013-04-07 19:42:00,
2013-04-07 15:53:00,52.0,16.0,-100.00,SSW,210,4.0,21.0,23,0.00,,,-99.99,,2013-04-07 19:53:00,
2013-04-07 16:03:00,53.0,16.0,-100.00,SW,230,7.0,17.0,23,0.00,,,-99.99,,2013-04-07 20:03:00,
2013-04-07 16:13:00,53.0,17.0,-100.00,SW,220,7.0,12.0,23,0.00,,,-99.99,,2013-04-07 20:13:00,
2013-04-07 16:22:00,53.0,17.0,-100.00,SW,220,6.0,12.0,23,0.00,,,-99.99,,2013-04-07 20:22:00,
2013-04-07 16:33:00,53.0,17.0,-100.00,SW,225,6.0,16.0,24,0.00,,,-99.99,,2013-04-07 20:33:00,
2013-04-07 16:43:00,53.0,17.0,-100.00,SW,225,4.0,12.0,24,0.00,,,-99.99,,2013-04-07 20:43:00,
2013-04-07 16:52:00,53.0,18.0,-100.00,SW,230,3.0,19.0,24,0.00,,,-99.99,,2013-04-07 20:52:00,
2013-04-07 17:03:00,53.0,18.0,-100.00,WSW,240,5.0,12.0,25,0.00,,,-99.99,,2013-04-07 21:03:00,
2013-04-07 17:13:00,53.0,18.0,-100.00,WSW,240,5.0,12.0,25,0.00,,,-99.99,,2013-04-07 21:13:00,
2013-04-07 17:22:00,53.0,18.0,-100.00,WSW,240,5.0,12.0,25,0.00,,,-99.99,,2013-04-07 21:22:00,
2013-04-07 17:34:00,52.0,20.0,-100.00,SSW,200,6.0,18.0,28,0.00,,,-99.99,,2013-04-07 21:34:00,
2013-04-07 17:43:00,52.0,20.0,-100.00,WSW,240,2.0,15.0,28,0.00,,,-99.99,,2013-04-07 21:43:00,
2013-04-07 17:55:00,51.0,23.0,-100.00,West,265,3.0,17.0,33,0.00,,,-99.99,,2013-04-07 21:55:00,
2013-04-07 18:05:00,51.0,22.0,-100.00,SW,225,2.0,11.0,31,0.00,,,-99.99,,2013-04-07 22:05:00,
2013-04-07 18:15:00,51.0,22.0,-100.00,SW,230,2.0,12.0,31,0.00,,,-99.99,,2013-04-07 22:15:00,
2013-04-07 18:23:00,51.0,22.0,-100.00,East,85,2.0,13.0,31,0.00,,,-99.99,,2013-04-07 22:23:00,
2013-04-07 18:34:00,52.0,22.0,-100.00,SW,230,5.0,12.0,31,0.00,,,-99.99,,2013-04-07 22:34:00,
2013-04-07 18:43:00,52.0,23.0,-100.00,SSE,160,4.0,8.0,32,0.00,,,-99.99,,2013-04-07 22:43:00,
2013-04-07 18:53:00,52.0,24.0,-100.00,SW,225,3.0,8.0,33,0.00,,,-99.99,,2013-04-07 22:53:00,
2013-04-07 19:13:00,51.0,24.0,-100.00,SSW,200,4.0,9.0,34,0.00,,,-99.99,,2013-04-07 23:13:00,
2013-04-07 19:22:00,51.0,25.0,-100.00,SW,220,2.0,8.0,35,0.00,,,-99.99,,2013-04-07 23:22:00,
2013-04-07 19:32:00,50.0,25.0,-100.00,WSW,245,6.0,10.0,36,0.00,,,-99.99,,2013-04-07 23:32:00,
2013-04-07 19:43:00,50.0,25.0,-100.00,SSW,195,4.0,10.0,37,0.00,,,-99.99,,2013-04-07 23:43:00,
2013-04-07 19:52:00,50.0,26.0,-100.00,SW,235,3.0,11.0,38,0.00,,,-99.99,,2013-04-07 23:52:00,
2013-04-07 20:02:00,50.0,26.0,-100.00,SW,235,4.0,10.0,38,0.00,,,-99.99,,2013-04-08 00:02:00,
2013-04-07 20:12:00,50.0,26.0,-100.00,SW,225,3.0,7.0,39,0.00,,,-99.99,,2013-04-08 00:12:00,
2013-04-07 20:22:00,49.0,26.0,-100.00,WSW,240,3.0,14.0,40,0.00,,,-99.99,,2013-04-08 00:22:00,
2013-04-07 20:32:00,49.0,27.0,-100.00,SW,225,4.0,14.0,41,0.00,,,-99.99,,2013-04-08 00:32:00,
2013-04-07 20:42:00,49.0,27.0,-100.00,SW,220,5.0,12.0,42,0.00,,,-99.99,,2013-04-08 00:42:00,
2013-04-07 20:52:00,49.0,27.0,-100.00,SW,230,4.0,14.0,43,0.00,,,-99.99,,2013-04-08 00:52:00,
2013-04-07 21:03:00,49.0,28.0,-100.00,WSW,240,6.0,17.0,43,0.00,,,-99.99,,2013-04-08 01:03:00,
2013-04-07 21:12:00,48.0,28.0,-100.00,SSW,210,4.0,11.0,44,0.00,,,-99.99,,2013-04-08 01:12:00,
2013-04-07 21:22:00,48.0,28.0,-100.00,WSW,245,4.0,12.0,46,0.00,,,-99.99,,2013-04-08 01:22:00,
2013-04-07 21:33:00,48.0,29.0,-100.00,SSW,195,4.0,12.0,46,0.00,,,-99.99,,2013-04-08 01:33:00,
2013-04-07 21:43:00,48.0,29.0,-100.00,SSW,205,6.0,17.0,47,0.00,,,-99.99,,2013-04-08 01:43:00,
2013-04-07 21:53:00,47.0,29.0,-100.00,SW,215,6.0,15.0,48,0.00,,,-99.99,,2013-04-08 01:53:00,
2013-04-07 22:03:00,47.0,29.0,-100.00,WSW,240,6.0,12.0,48,0.00,,,-99.99,,2013-04-08 02:03:00,
2013-04-07 22:12:00,47.0,29.0,-100.00,SW,235,7.0,23.0,48,0.00,,,-99.99,,2013-04-08 02:12:00,
2013-04-07 22:22:00,47.0,29.0,-100.00,SW,230,5.0,17.0,49,0.00,,,-99.99,,2013-04-08 02:22:00,
2013-04-07 22:33:00,47.0,29.0,-100.00,WSW,245,6.0,13.0,49,0.00,,,-99.99,,2013-04-08 02:33:00,
2013-04-07 22:47:00,47.0,29.0,-100.00,SSW,210,6.0,17.0,50,0.00,,,-99.99,,2013-04-08 02:47:00,
2013-04-07 22:53:00,47.0,29.0,-100.00,SW,220,4.0,13.0,50,0.00,,,-99.99,,2013-04-08 02:53:00,
2013-04-07 23:08:00,47.0,29.0,-100.00,SW,220,6.0,17.0,50,0.00,,,-99.99,,2013-04-08 03:08:00,
2013-04-07 23:25:00,46.0,30.0,-100.00,SW,235,5.0,17.0,52,0.00,,,-99.99,,2013-04-08 03:25:00,
2013-04-07 23:34:00,46.0,30.0,-100.00,WSW,240,4.0,12.0,53,0.00,,,-99.99,,2013-04-08 03:34:00,
2013-04-07 23:47:00,46.0,31.0,-100.00,SW,235,5.0,12.0,54,0.00,,,-99.99,,2013-04-08 03:47:00,
2013-04-07 23:53:00,46.0,31.0,-100.00,WSW,250,2.0,8.0,55,0.00,,,-99.99,,2013-04-08 03:53:00,